Aviation Digital Data Service (ADDS)

Output produced by METARs form (1752 UTC 29 July 2016)
found at http://aviationweather.gov/adds/metars/
 
KFRG 291653Z 04009G17KT 10SM BKN038 OVC047 23/21 A2984 RMK AO2 SLP104 T02280206
KISP 291716Z 02013KT 10SM FEW010 BKN018 OVC044 24/21 A2983 RMK AO2 T02390206
KISP 291656Z 01010G18KT 10SM BKN010 BKN020 OVC044 23/21 A2983 RMK AO2 SLP099 T02330206
KISP 291733Z 2918/3018 02012KT P6SM BKN015 OVC040 
     FM291900 04009KT P6SM FEW015 SCT050 
     FM292200 04007KT P6SM FEW050 SCT250 
     FM300000 VRB03KT P6SM FEW150 FEW250 
     TEMPO 3008/3012 5SM BR 
     FM301600 16006KT P6SM BKN050 BKN100
       
KJFK 291733Z 2918/3024 05015KT P6SM SCT010 BKN045 BKN100 
     FM292000 03010KT P6SM SCT040 SCT100 
     FM292200 VRB04KT P6SM FEW150 SCT250 
     FM301200 05007KT P6SM BKN050 BKN150 
     FM301400 12007KT P6SM BKN050 BKN120 
     FM301700 16007KT P6SM BKN050 BKN120
       
KBDR 291730Z 07010KT 10SM SCT021 BKN033 OVC040 26/20 A2984 RMK AO2 T02560200
KBDR 291701Z 04007KT 10SM BKN015 BKN025 OVC050 26/21 A2985 RMK AO2 T02560206
KBDR 291733Z 2918/3018 04007KT P6SM BKN015 BKN025 OVC050 
     FM291900 07009KT P6SM SCT020 SCT050 
     FM300100 VRB03KT P6SM SCT250 
     FM301200 05006KT P6SM FEW120 SCT150 
     FM301600 12006KT P6SM BKN080 BKN120